Time;durP1;ratioP1;P1;durP2;ratioP2;P2;SDS_P1;SDS_P2;PMS_P1;PMS_P2;Temp;Humidity;BMP_temperature;BMP_pressure;BME280_temperature;BME280_humidity;BME280_pressure;Samples;Min_cycle;Max_cycle;Signal;HPM_P1;HPM_P2
2022/08/27 00:00:49;;;;;;;8.18;4.90;;;;;;;;;;5136698;28;20423;-81
2022/08/27 00:03:16;;;;;;;9.52;4.97;;;15.00;99.90;;;;;;5117747;28;20443;-81
2022/08/27 00:05:42;;;;;;;8.37;4.60;;;;;;;;;;5101174;28;20406;-82
2022/08/27 00:08:11;;;;;;;10.90;5.10;;;14.70;99.90;;;;;;5129887;28;20788;-82
2022/08/27 00:10:37;;;;;;;8.98;4.63;;;;;;;;;;5116803;28;20435;-80
2022/08/27 00:13:03;;;;;;;8.10;4.47;;;14.90;99.90;;;;;;5124242;28;20434;-81
2022/08/27 00:15:30;;;;;;;9.02;4.82;;;15.00;99.90;;;;;;5133698;28;20407;-83
2022/08/27 00:17:55;;;;;;;8.50;4.18;;;14.60;99.90;;;;;;5115363;28;20438;-82
2022/08/27 00:20:24;;;;;;;10.13;4.60;;;;;;;;;;5105084;28;20412;-82
2022/08/27 00:22:50;;;;;;;10.57;5.00;;;;;;;;;;5111312;28;20448;-81
2022/08/27 00:25:17;;;;;;;9.82;5.00;;;;;;;;;;5129103;28;20420;-82
2022/08/27 00:27:43;;;;;;;11.23;4.80;;;15.00;99.90;;;;;;5132432;28;20485;-80
2022/08/27 00:30:11;;;;;;;8.53;4.80;;;;;;;;;;5134789;28;20426;-80
2022/08/27 00:32:39;;;;;;;8.48;4.65;;;;;;;;;;5127568;28;20421;-80
2022/08/27 00:35:05;;;;;;;9.07;4.75;;;;;;;;;;5135372;28;20410;-81
2022/08/27 00:37:31;;;;;;;7.85;4.43;;;;;;;;;;5131124;28;20415;-81
2022/08/27 00:39:57;;;;;;;8.70;4.75;;;;;;;;;;5133266;28;20419;-81
2022/08/27 00:42:24;;;;;;;9.32;5.10;;;;;;;;;;5130792;28;20430;-81
2022/08/27 00:44:50;;;;;;;10.32;4.95;;;;;;;;;;5134113;28;20399;-81
2022/08/27 00:47:18;;;;;;;9.15;4.80;;;;;;;;;;5113049;28;20416;-81
2022/08/27 00:49:49;;;;;;;10.02;5.25;;;;;;;;;;5113018;28;20920;-81
2022/08/27 00:52:22;;;;;;;10.45;5.60;;;;;;;;;;5109656;28;20411;-81
2022/08/27 00:54:48;;;;;;;7.60;5.22;;;;;;;;;;5133332;28;20431;-80
2022/08/27 00:57:15;;;;;;;9.15;5.20;;;;;;;;;;5110010;28;20412;-79
2022/08/27 00:59:42;;;;;;;11.13;5.50;;;;;;;;;;5108827;28;20441;-79
2022/08/27 01:02:17;;;;;;;9.25;5.10;;;;;;;;;;5115044;28;20418;-81
2022/08/27 01:04:52;;;;;;;11.68;5.32;;;14.60;99.90;;;;;;5087449;28;20410;-79
2022/08/27 01:07:19;;;;;;;9.88;5.60;;;;;;;;;;5098352;28;20428;-80
2022/08/27 01:09:47;;;;;;;11.50;5.47;;;14.60;99.90;;;;;;5101016;28;20420;-80
2022/08/27 01:12:14;;;;;;;10.07;5.30;;;;;;;;;;5104240;28;20396;-82
2022/08/27 01:14:42;;;;;;;8.98;5.65;;;14.40;99.90;;;;;;5115810;28;20410;-80
2022/08/27 01:17:09;;;;;;;9.43;5.18;;;;;;;;;;5120040;28;20416;-80
2022/08/27 01:19:49;;;;;;;9.82;5.55;;;14.40;99.90;;;;;;5091063;28;20422;-81
2022/08/27 01:25:03;;;;;;;9.02;5.40;;;14.10;99.90;;;;;;5155269;27;20857;-80
2022/08/27 01:27:33;;;;;;;10.63;6.22;;;14.30;99.90;;;;;;5133460;28;20487;-80
2022/08/27 01:29:59;;;;;;;9.35;5.70;;;;;;;;;;5109505;28;20393;-81
2022/08/27 01:32:27;;;;;;;9.68;5.88;;;;;;;;;;5110434;28;20458;-80
2022/08/27 01:34:54;;;;;;;11.73;5.97;;;;;;;;;;5120376;28;20937;-81
2022/08/27 01:37:21;;;;;;;9.45;5.78;;;14.00;99.90;;;;;;5104744;28;20431;-80
2022/08/27 01:39:47;;;;;;;9.57;5.97;;;;;;;;;;5114315;27;20425;-81
2022/08/27 01:42:16;;;;;;;10.25;5.55;;;;;;;;;;5129708;28;20434;-81
2022/08/27 01:44:56;;;;;;;9.15;5.97;;;;;;;;;;5129837;28;20508;-81
2022/08/27 01:47:25;;;;;;;9.70;6.18;;;14.10;99.90;;;;;;5130783;28;20441;-78
2022/08/27 01:49:51;;;;;;;11.13;5.80;;;;;;;;;;5110643;28;20971;-79
2022/08/27 01:52:20;;;;;;;9.80;6.13;;;14.10;99.90;;;;;;5128812;28;20428;-80
2022/08/27 01:54:46;;;;;;;11.67;5.73;;;;;;;;;;5111638;28;20423;-80
2022/08/27 01:57:13;;;;;;;9.95;5.95;;;;;;;;;;5129264;28;20451;-80
2022/08/27 01:59:39;;;;;;;8.95;5.72;;;;;;;;;;5112706;28;20819;-79
2022/08/27 02:02:05;;;;;;;11.80;5.60;;;14.00;99.90;;;;;;5115776;28;20403;-80
2022/08/27 02:04:32;;;;;;;13.90;5.82;;;;;;;;;;5092350;28;20484;-80
2022/08/27 02:06:58;;;;;;;10.90;5.93;;;;;;;;;;5128304;28;20503;-80
2022/08/27 02:09:25;;;;;;;10.98;5.82;;;;;;;;;;5130829;28;20495;-80
2022/08/27 02:11:51;;;;;;;8.93;5.78;;;14.10;99.90;;;;;;5113504;28;20419;-80
2022/08/27 02:14:19;;;;;;;9.13;5.53;;;;;;;;;;5130592;28;20420;-80
2022/08/27 02:16:45;;;;;;;11.10;5.85;;;;;;;;;;5093857;28;20826;-80
2022/08/27 02:19:11;;;;;;;9.05;5.80;;;14.20;99.90;;;;;;5102775;28;20480;-80
2022/08/27 02:21:37;;;;;;;11.90;5.53;;;;;;;;;;5121523;28;20968;-79
2022/08/27 02:24:03;;;;;;;8.38;5.15;;;;;;;;;;5131616;28;22836;-79
2022/08/27 02:26:29;;;;;;;9.20;5.70;;;;;;;;;;5131343;28;20423;-80
2022/08/27 02:28:55;;;;;;;9.20;5.78;;;;;;;;;;5142251;28;20485;-81
2022/08/27 02:32:29;;;;;;;9.23;5.82;;;;;;;;;;5182909;27;20413;-80
2022/08/27 02:34:56;;;;;;;9.50;5.88;;;;;;;;;;5154179;27;20408;-79
2022/08/27 02:37:22;;;;;;;9.85;5.93;;;;;;;;;;5133077;27;20437;-81
2022/08/27 02:39:48;;;;;;;10.93;5.90;;;;;;;;;;5149550;27;20816;-80
2022/08/27 02:42:14;;;;;;;10.63;5.47;;;;;;;;;;5144358;27;20420;-81
2022/08/27 02:44:40;;;;;;;11.45;5.60;;;13.90;99.90;;;;;;5118379;27;20389;-80
2022/08/27 02:47:06;;;;;;;10.32;5.35;;;;;;;;;;5129367;28;20418;-79
2022/08/27 02:49:33;;;;;;;9.35;5.38;;;;;;;;;;5142884;28;20426;-81
2022/08/27 02:51:59;;;;;;;11.77;5.95;;;;;;;;;;5143887;27;20438;-80
2022/08/27 02:54:25;;;;;;;9.00;6.15;;;;;;;;;;5127323;27;20395;-81
2022/08/27 02:56:53;;;;;;;9.30;5.63;;;13.70;99.90;;;;;;5142834;27;20413;-76
2022/08/27 02:59:19;;;;;;;10.03;5.60;;;;;;;;;;5112826;27;20481;-76
2022/08/27 03:01:45;;;;;;;11.23;5.88;;;;;;;;;;5113480;27;20463;-76
2022/08/27 03:04:11;;;;;;;10.15;5.57;;;;;;;;;;5148416;27;20401;-76
2022/08/27 03:06:38;;;;;;;9.60;5.78;;;;;;;;;;5114748;27;20405;-76
2022/08/27 03:09:04;;;;;;;10.93;5.43;;;;;;;;;;5092967;28;20403;-76
2022/08/27 03:11:30;;;;;;;9.35;6.03;;;;;;;;;;5093979;28;20447;-75
2022/08/27 03:13:57;;;;;;;8.55;5.50;;;;;;;;;;5115346;28;20514;-76
2022/08/27 03:16:24;;;;;;;9.18;5.82;;;;;;;;;;5128427;27;20773;-76
2022/08/27 03:18:51;;;;;;;8.73;5.90;;;;;;;;;;5125700;28;20435;-76
2022/08/27 03:21:19;;;;;;;9.88;5.95;;;13.80;99.90;;;;;;5128148;28;20408;-76
2022/08/27 03:23:45;;;;;;;8.97;5.87;;;;;;;;;;5127953;28;20894;-77
2022/08/27 03:26:11;;;;;;;8.00;5.25;;;;;;;;;;5125248;28;20419;-76
2022/08/27 03:28:38;;;;;;;10.68;5.80;;;;;;;;;;5118338;28;20450;-76
2022/08/27 03:31:11;;;;;;;9.52;5.90;;;13.70;99.90;;;;;;5098017;27;20436;-77
2022/08/27 03:33:38;;;;;;;9.57;5.72;;;;;;;;;;5120864;27;20417;-76
2022/08/27 03:36:07;;;;;;;12.85;7.15;;;13.60;99.90;;;;;;5149290;27;20437;-75
2022/08/27 03:38:34;;;;;;;11.80;6.50;;;;;;;;;;5147116;27;20961;-75
2022/08/27 03:41:01;;;;;;;8.90;6.15;;;13.80;99.90;;;;;;5138773;27;20420;-75
2022/08/27 03:43:28;;;;;;;10.40;6.28;;;;;;;;;;5099205;28;20403;-76
2022/08/27 03:45:54;;;;;;;9.73;6.38;;;;;;;;;;5081871;28;20419;-76
2022/08/27 05:23:12;;;;;;;8.77;5.70;;;;;;;;;;4794079;27;10691197;-76
2022/08/27 05:25:40;;;;;;;11.05;5.85;;;;;;;;;;5125530;27;20450;-76
2022/08/27 05:28:09;;;;;;;10.10;5.82;;;;;;;;;;5123247;27;20414;-76
2022/08/27 05:30:48;;;;;;;7.47;5.10;;;;;;;;;;5130572;27;20511;-76
2022/08/27 05:33:27;;;;;;;8.53;5.53;;;;;;;;;;5114122;27;20398;-76
2022/08/27 05:35:55;;;;;;;9.93;5.50;;;;;;;;;;5113655;27;20436;-77
2022/08/27 05:38:21;;;;;;;8.35;5.43;;;;;;;;;;5116202;27;20418;-77
2022/08/27 05:40:48;;;;;;;11.60;5.72;;;;;;;;;;5099159;27;20490;-76
2022/08/27 05:43:16;;;;;;;11.20;5.57;;;;;;;;;;5102745;28;20418;-75
2022/08/27 05:45:43;;;;;;;11.02;5.57;;;;;;;;;;5108418;27;20447;-75
2022/08/27 05:48:12;;;;;;;8.63;4.97;;;;;;;;;;5129577;27;20429;-75
2022/08/27 05:50:39;;;;;;;11.10;5.32;;;;;;;;;;5112810;27;20527;-76
2022/08/27 05:53:06;;;;;;;9.10;5.20;;;;;;;;;;5119188;27;20417;-74
2022/08/27 05:55:36;;;;;;;9.88;5.40;;;;;;;;;;5112985;27;20414;-75
2022/08/27 05:58:02;;;;;;;12.02;5.15;;;;;;;;;;5122003;27;20418;-75
2022/08/27 06:03:13;;;;;;;7.53;4.90;;;;;;;;;;5124690;27;20434;-75
2022/08/27 06:05:39;;;;;;;10.50;4.82;;;;;;;;;;5114308;27;20402;-76
2022/08/27 06:08:05;;;;;;;7.97;4.43;;;;;;;;;;5112410;27;20497;-75
2022/08/27 06:10:32;;;;;;;8.23;5.15;;;;;;;;;;5117162;28;20431;-76
2022/08/27 06:12:58;;;;;;;9.73;5.03;;;;;;;;;;5102302;27;20943;-76
2022/08/27 06:15:24;;;;;;;9.97;4.87;;;;;;;;;;5128314;27;20421;-76
2022/08/27 06:17:51;;;;;;;8.55;4.70;;;;;;;;;;5144809;27;20541;-75
2022/08/27 06:20:19;;;;;;;9.63;4.68;;;;;;;;;;5111505;27;20470;-76
2022/08/27 06:22:45;;;;;;;7.75;3.90;;;15.90;99.90;;;;;;5125806;27;20430;-77
2022/08/27 06:25:11;;;;;;;6.55;3.72;;;;;;;;;;5146555;27;20406;-74
2022/08/27 06:27:37;;;;;;;8.75;4.25;;;16.30;99.90;;;;;;5106586;28;20426;-77
2022/08/27 06:30:03;;;;;;;8.02;4.07;;;;;;;;;;5136393;27;20404;-76
2022/08/27 06:32:30;;;;;;;8.23;4.13;;;;;;;;;;5113340;27;20472;-77
2022/08/27 06:34:56;;;;;;;8.67;3.60;;;;;;;;;;5114997;27;20442;-78
2022/08/27 06:37:22;;;;;;;9.13;3.05;;;;;;;;;;5093107;27;20410;-78
2022/08/27 06:39:48;;;;;;;8.57;3.20;;;;;;;;;;5115277;27;20456;-78
2022/08/27 06:42:14;;;;;;;8.20;3.25;;;;;;;;;;5099907;27;20421;-76
2022/08/27 06:44:40;;;;;;;6.73;3.10;;;17.10;99.90;;;;;;5082649;27;20415;-76
2022/08/27 06:47:07;;;;;;;8.98;3.22;;;;;;;;;;5134433;27;20437;-76
2022/08/27 06:49:32;;;;;;;9.07;3.40;;;17.60;99.90;;;;;;5108676;28;20450;-75
2022/08/27 06:51:58;;;;;;;7.90;2.90;;;;;;;;;;5077161;28;20424;-77
2022/08/27 06:54:24;;;;;;;9.00;3.00;;;;;;;;;;5112031;28;20438;-76
2022/08/27 06:56:50;;;;;;;6.50;2.60;;;;;;;;;;5132048;27;20387;-78
2022/08/27 06:59:17;;;;;;;8.33;3.30;;;17.60;99.90;;;;;;5116069;27;20415;-78
2022/08/27 07:01:46;;;;;;;6.83;3.30;;;;;;;;;;5097714;27;20419;-78
2022/08/27 07:04:17;;;;;;;6.93;2.70;;;17.60;99.90;;;;;;5116122;27;20434;-77
2022/08/27 07:06:43;;;;;;;7.63;3.30;;;;;;;;;;5133778;27;20464;-77
2022/08/27 07:09:10;;;;;;;7.97;3.00;;;;;;;;;;5128057;27;20413;-76
2022/08/27 07:11:37;;;;;;;8.20;2.93;;;;;;;;;;5105627;27;20555;-76
2022/08/27 07:14:04;;;;;;;7.13;2.70;;;;;;;;;;5106395;28;20452;-77
2022/08/27 07:16:30;;;;;;;5.97;2.77;;;;;;;;;;5114570;27;20778;-77
2022/08/27 07:18:58;;;;;;;7.07;2.90;;;;;;;;;;5132660;27;20439;-78
2022/08/27 07:21:24;;;;;;;8.27;2.78;;;;;;;;;;5098984;27;20786;-77
2022/08/27 07:23:51;;;;;;;7.38;2.70;;;18.40;99.90;;;;;;5078514;28;20423;-77
2022/08/27 07:26:18;;;;;;;7.50;2.90;;;18.10;99.90;;;;;;5102394;27;20475;-78
2022/08/27 07:28:45;;;;;;;9.07;2.58;;;;;;;;;;5129927;27;20413;-77
2022/08/27 07:31:15;;;;;;;8.18;2.40;;;18.20;99.90;;;;;;5094666;27;20418;-77
2022/08/27 07:33:42;;;;;;;6.32;2.38;;;;;;;;;;5110925;27;20778;-77
2022/08/27 07:36:08;;;;;;;7.07;2.50;;;;;;;;;;5094707;28;20420;-78
2022/08/27 07:38:34;;;;;;;6.45;2.22;;;;;;;;;;5127106;27;20415;-78
2022/08/27 07:41:05;;;;;;;5.75;2.10;;;18.80;99.90;;;;;;5095639;28;20412;-78
2022/08/27 07:46:15;;;;;;;6.90;2.00;;;18.80;99.90;;;;;;5130416;27;20409;-79
2022/08/27 07:48:42;;;;;;;6.95;2.30;;;;;;;;;;5106757;27;20518;-79
2022/08/27 07:51:17;;;;;;;7.68;2.20;;;18.70;99.90;;;;;;5107208;27;20422;-79
2022/08/27 07:53:44;;;;;;;7.05;2.40;;;18.90;99.90;;;;;;5108677;27;20494;-79
2022/08/27 07:56:11;;;;;;;6.32;2.30;;;;;;;;;;5113382;27;20442;-79
2022/08/27 07:58:37;;;;;;;5.40;1.73;;;;;;;;;;5099984;27;20410;-79
2022/08/27 08:01:03;;;;;;;6.05;2.20;;;19.20;99.90;;;;;;5107120;27;20425;-79
2022/08/27 08:03:30;;;;;;;8.33;2.13;;;;;;;;;;5112524;27;20439;-78
2022/08/27 08:06:00;;;;;;;8.05;2.38;;;19.20;99.90;;;;;;5113935;27;20426;-77
2022/08/27 08:08:26;;;;;;;8.18;2.20;;;19.10;99.90;;;;;;5106868;27;20463;-78
2022/08/27 08:10:56;;;;;;;8.63;2.20;;;19.30;99.90;;;;;;5094384;27;20410;-78
2022/08/27 08:13:23;;;;;;;7.75;2.05;;;;;;;;;;5129342;27;20947;-77
2022/08/27 08:15:49;;;;;;;7.10;2.03;;;;;;;;;;5097741;27;20454;-77
2022/08/27 08:18:15;;;;;;;7.93;2.10;;;19.40;99.90;;;;;;5104388;27;20502;-76
2022/08/27 08:20:41;;;;;;;10.10;2.40;;;;;;;;;;5108596;27;20576;-77
2022/08/27 08:23:07;;;;;;;9.23;2.33;;;;;;;;;;5123140;27;20988;-75
2022/08/27 08:25:33;;;;;;;6.03;1.75;;;;;;;;;;5097256;27;20418;-74
2022/08/27 08:27:59;;;;;;;6.88;1.92;;;;;;;;;;5096507;27;20427;-75
2022/08/27 08:30:26;;;;;;;8.30;1.80;;;19.50;99.90;;;;;;5085749;28;20416;-76
2022/08/27 08:32:53;;;;;;;7.45;1.92;;;;;;;;;;5117256;27;20459;-74
2022/08/27 08:35:19;;;;;;;5.75;1.77;;;;;;;;;;5112869;27;20490;-75
2022/08/27 08:37:46;;;;;;;7.15;1.83;;;;;;;;;;5124278;27;20403;-74
2022/08/27 08:40:32;;;;;;;8.95;1.98;;;;;;;;;;5121925;27;20445;-76
2022/08/27 08:42:59;;;;;;;8.45;1.90;;;19.80;99.90;;;;;;5132718;27;20493;-76
2022/08/27 08:45:28;;;;;;;7.15;1.80;;;19.90;99.90;;;;;;5131684;27;20821;-76
2022/08/27 08:48:28;;;;;;;5.70;1.80;;;20.10;99.90;;;;;;5130350;27;20404;-77
2022/08/27 08:51:09;;;;;;;6.70;1.90;;;20.10;99.90;;;;;;5067952;27;20957;-77
2022/08/27 08:53:55;;;;;;;6.68;1.70;;;20.10;99.90;;;;;;5097425;27;20413;-76
2022/08/27 08:56:31;;;;;;;12.30;1.90;;;20.20;99.90;;;;;;5093549;27;20418;-76
2022/08/27 08:59:13;;;;;;;10.45;1.95;;;20.40;99.90;;;;;;5106602;28;20423;-77
2022/08/27 09:01:39;;;;;;;8.27;1.70;;;20.30;99.90;;;;;;5121845;27;20459;-77
2022/08/27 09:04:09;;;;;;;6.30;1.70;;;20.30;99.90;;;;;;5093096;28;20481;-78
2022/08/27 09:06:57;;;;;;;6.95;1.63;;;20.50;99.90;;;;;;5097526;27;20474;-77
2022/08/27 09:09:46;;;;;;;7.53;1.73;;;20.50;99.90;;;;;;5118529;27;20769;-77
2022/08/27 09:12:18;;;;;;;7.05;2.00;;;20.30;99.90;;;;;;5111128;28;20490;-76
2022/08/27 09:14:50;;;;;;;6.90;1.75;;;20.10;99.90;;;;;;5093524;27;20422;-76
2022/08/27 09:17:16;;;;;;;7.07;1.70;;;20.50;99.90;;;;;;5121520;27;20450;-77
2022/08/27 09:19:42;;;;;;;5.03;1.35;;;20.70;99.90;;;;;;5110654;28;20469;-78
2022/08/27 09:22:37;;;;;;;7.43;1.75;;;20.60;99.90;;;;;;5112841;28;20909;-77
2022/08/27 09:25:20;;;;;;;6.28;1.83;;;20.60;99.90;;;;;;5101780;28;20882;-76
2022/08/27 09:27:47;;;;;;;7.32;2.03;;;20.80;99.90;;;;;;5114033;28;20451;-77
2022/08/27 09:30:20;;;;;;;6.20;1.70;;;20.80;99.90;;;;;;5108902;28;20482;-77
2022/08/27 09:32:55;;;;;;;8.20;2.00;;;20.70;99.90;;;;;;5090622;28;20423;-77
2022/08/27 09:35:22;;;;;;;6.82;1.65;;;20.50;99.90;;;;;;5119111;28;20410;-77
2022/08/27 09:37:53;;;;;;;8.45;1.70;;;21.00;99.90;;;;;;5108199;28;21039;-77
2022/08/27 09:40:19;;;;;;;6.60;1.85;;;;;;;;;;5107603;28;20524;-77
2022/08/27 09:42:52;;;;;;;5.70;2.00;;;21.00;99.90;;;;;;5112008;28;20494;-77
2022/08/27 09:45:21;;;;;;;6.80;1.73;;;20.80;99.90;;;;;;5112660;28;20410;-77
2022/08/27 09:48:03;;;;;;;4.60;1.58;;;20.60;99.90;;;;;;5093381;28;20414;-77
2022/08/27 09:51:07;;;;;;;6.80;1.70;;;21.00;99.90;;;;;;5093605;28;20779;-77
2022/08/27 09:54:00;;;;;;;6.35;1.65;;;20.60;99.90;;;;;;5041557;28;20421;-77
2022/08/27 09:56:33;;;;;;;6.32;1.90;;;20.60;99.90;;;;;;5109609;28;20462;-77
2022/08/27 09:59:09;;;;;;;7.90;1.60;;;20.90;99.90;;;;;;5109307;28;20422;-77
2022/08/27 10:01:50;;;;;;;6.60;1.70;;;21.20;99.90;;;;;;5111026;28;20929;-78
2022/08/27 10:04:25;;;;;;;5.85;1.63;;;21.40;99.90;;;;;;5107026;28;20753;-77
2022/08/27 10:06:51;;;;;;;7.80;1.90;;;21.40;99.90;;;;;;5110261;28;20467;-77
2022/08/27 10:09:28;;;;;;;7.75;1.90;;;22.00;99.90;;;;;;5095475;27;20418;-72
2022/08/27 10:12:13;;;;;;;6.20;2.28;;;22.00;99.90;;;;;;5098625;27;20767;-72
2022/08/27 10:15:15;;;;;;;8.27;1.87;;;22.10;99.90;;;;;;5091598;27;20456;-76
2022/08/27 10:17:55;;;;;;;6.55;2.13;;;21.40;99.90;;;;;;5093845;27;20475;-76
2022/08/27 10:20:51;;;;;;;5.00;1.70;;;21.60;99.90;;;;;;5116730;27;20399;-76
2022/08/27 10:23:39;;;;;;;5.20;1.77;;;21.50;99.90;;;;;;5107718;27;20420;-76
2022/08/27 10:26:22;;;;;;;7.85;2.13;;;21.70;99.90;;;;;;5080939;27;21426;-76
2022/08/27 10:29:20;;;;;;;5.75;1.50;;;21.70;99.90;;;;;;5097875;27;20418;-75
2022/08/27 10:32:24;;;;;;;4.63;1.50;;;21.80;99.90;;;;;;5117629;27;20410;-76
2022/08/27 10:34:52;;;;;;;4.78;1.60;;;22.00;99.90;;;;;;5123876;27;20959;-75
2022/08/27 10:37:21;;;;;;;4.50;1.50;;;22.20;99.90;;;;;;5116884;27;20884;-76
2022/08/27 10:39:53;;;;;;;5.90;1.67;;;21.80;99.90;;;;;;5112765;27;20449;-76
2022/08/27 10:42:26;;;;;;;6.18;1.65;;;21.50;99.90;;;;;;5097022;27;20928;-75
2022/08/27 10:45:03;;;;;;;5.97;1.60;;;21.90;99.90;;;;;;5112967;27;20436;-75
2022/08/27 10:47:47;;;;;;;5.45;1.65;;;21.30;99.90;;;;;;5112004;27;20425;-76
2022/08/27 10:50:27;;;;;;;5.70;1.60;;;21.40;99.90;;;;;;5124056;27;20747;-76
2022/08/27 10:52:59;;;;;;;9.00;1.75;;;21.20;99.90;;;;;;5098160;27;20420;-75
2022/08/27 10:55:31;;;;;;;4.97;1.40;;;21.20;99.90;;;;;;5113316;27;20418;-75
2022/08/27 10:58:21;;;;;;;6.30;1.60;;;21.20;99.90;;;;;;5130678;27;20429;-76
2022/08/27 11:00:59;;;;;;;5.57;1.35;;;21.30;99.90;;;;;;5113817;27;20423;-76
2022/08/27 11:03:36;;;;;;;5.93;1.70;;;21.30;99.90;;;;;;5097832;28;20431;-75
2022/08/27 11:06:19;;;;;;;4.60;1.48;;;21.40;99.90;;;;;;5114436;27;20474;-75
2022/08/27 11:08:51;;;;;;;5.78;1.90;;;21.70;99.90;;;;;;5100624;27;20391;-76
2022/08/27 11:11:31;;;;;;;5.53;1.50;;;21.90;99.90;;;;;;5114038;27;20424;-75
2022/08/27 11:13:58;;;;;;;6.72;1.67;;;22.50;99.90;;;;;;5123118;27;20465;-75
2022/08/27 11:16:31;;;;;;;6.00;1.40;;;22.30;99.90;;;;;;5109379;27;20449;-76
2022/08/27 11:19:12;;;;;;;5.20;1.50;;;22.70;99.90;;;;;;5113628;27;20770;-77
2022/08/27 11:22:01;;;;;;;6.30;1.50;;;22.80;99.90;;;;;;5098997;27;20942;-77
2022/08/27 11:25:17;;;;;;;5.13;1.50;;;22.80;99.90;;;;;;5085277;27;20822;-76
2022/08/27 11:27:46;;;;;;;6.15;1.52;;;22.80;99.90;;;;;;5099114;27;20415;-77
2022/08/27 11:30:47;;;;;;;3.72;1.30;;;22.50;99.90;;;;;;5106297;27;20416;-75
2022/08/27 11:33:28;;;;;;;10.02;1.67;;;22.20;99.90;;;;;;5079840;27;20469;-76
2022/08/27 11:36:38;;;;;;;5.38;1.50;;;22.10;99.90;;;;;;5108447;27;21522;-74
2022/08/27 11:39:28;;;;;;;5.78;1.40;;;21.80;99.90;;;;;;5104420;27;20411;-76
2022/08/27 11:42:09;;;;;;;4.30;1.30;;;21.80;99.90;;;;;;5109051;27;20429;-75
2022/08/27 11:44:45;;;;;;;6.47;1.50;;;22.10;99.90;;;;;;5111967;27;20410;-76
2022/08/27 11:47:18;;;;;;;6.13;1.65;;;22.00;99.90;;;;;;5105489;28;20408;-75
2022/08/27 11:49:54;;;;;;;4.50;1.40;;;22.50;99.90;;;;;;5107735;27;20415;-76
2022/08/27 11:52:28;;;;;;;5.57;1.50;;;22.70;99.90;;;;;;5112356;27;20814;-77
2022/08/27 11:55:15;;;;;;;9.63;1.70;;;22.80;99.90;;;;;;5096942;28;20780;-77
2022/08/27 11:57:42;;;;;;;8.07;2.00;;;25.20;99.90;;;;;;5090587;28;20416;-78
2022/08/27 12:00:25;;;;;;;6.10;1.58;;;22.60;99.90;;;;;;5106080;27;20446;-77
2022/08/27 12:03:01;;;;;;;5.88;1.50;;;23.30;99.90;;;;;;5111442;27;20997;-77
2022/08/27 12:05:44;;;;;;;6.22;1.27;;;22.80;99.90;;;;;;5088052;27;20465;-77
2022/08/27 12:08:28;;;;;;;6.22;1.88;;;22.60;99.90;;;;;;5092207;27;20434;-77
2022/08/27 12:11:28;;;;;;;8.77;1.40;;;23.00;99.90;;;;;;5103138;27;20410;-77
2022/08/27 12:14:03;;;;;;;6.97;1.73;;;22.60;99.90;;;;;;5112694;27;20503;-76
2022/08/27 12:16:37;;;;;;;8.43;1.40;;;22.80;99.90;;;;;;5112501;27;20747;-77
2022/08/27 12:19:22;;;;;;;6.35;1.55;;;22.70;99.90;;;;;;5109496;27;20506;-79
2022/08/27 12:22:02;;;;;;;5.33;1.40;;;22.50;99.90;;;;;;5093596;27;20424;-78
2022/08/27 12:24:56;;;;;;;6.43;1.70;;;22.30;99.90;;;;;;5112563;27;20406;-78
2022/08/27 12:27:30;;;;;;;5.93;1.52;;;22.50;99.90;;;;;;5099833;27;21268;-78
2022/08/27 12:30:18;;;;;;;7.32;1.40;;;22.80;99.90;;;;;;5111883;27;20426;-79
2022/08/27 12:32:47;;;;;;;6.22;1.60;;;23.50;99.90;;;;;;5114401;27;20406;-78
2022/08/27 12:35:22;;;;;;;4.97;2.50;;;23.50;99.90;;;;;;5131068;27;20413;-79
2022/08/27 12:37:52;;;;;;;8.30;2.13;;;23.50;99.90;;;;;;5113986;27;20479;-79
2022/08/27 12:40:25;;;;;;;6.63;1.70;;;23.30;99.90;;;;;;5102378;27;20422;-79
2022/08/27 12:43:17;;;;;;;4.75;1.40;;;23.30;99.90;;;;;;5100719;27;20426;-78
2022/08/27 12:45:50;;;;;;;6.05;1.45;;;23.40;99.90;;;;;;5101353;27;20754;-77
2022/08/27 12:48:31;;;;;;;5.72;1.50;;;23.20;99.90;;;;;;5097087;27;20424;-78
2022/08/27 12:51:01;;;;;;;6.82;1.50;;;23.80;99.90;;;;;;5111657;27;20425;-80
2022/08/27 12:53:33;;;;;;;5.13;1.30;;;23.30;99.90;;;;;;5094303;27;20482;-79
2022/08/27 12:56:29;;;;;;;5.05;1.27;;;22.90;99.90;;;;;;5110197;27;20429;-80
2022/08/27 12:59:04;;;;;;;7.78;1.73;;;23.20;99.90;;;;;;5114058;27;20418;-77
2022/08/27 13:01:57;;;;;;;4.93;1.30;;;23.10;99.90;;;;;;5112743;27;20454;-77
2022/08/27 13:04:26;;;;;;;4.90;1.48;;;23.30;99.90;;;;;;5097401;27;20529;-79
2022/08/27 13:06:52;;;;;;;5.68;1.50;;;23.20;99.90;;;;;;5080505;28;21236;-78
2022/08/27 13:09:30;;;;;;;4.30;1.50;;;23.50;99.90;;;;;;5128645;27;20498;-78
2022/08/27 13:11:58;;;;;;;5.55;1.30;;;23.70;99.90;;;;;;5096798;28;20392;-79
2022/08/27 13:14:25;;;;;;;3.88;1.27;;;24.30;99.90;;;;;;5113868;28;20860;-78
2022/08/27 13:17:17;;;;;;;5.18;1.42;;;23.90;99.90;;;;;;5096148;28;20435;-78
2022/08/27 13:19:57;;;;;;;4.75;1.30;;;24.30;99.90;;;;;;5097616;28;20794;-79
2022/08/27 13:22:34;;;;;;;5.35;1.25;;;24.30;99.90;;;;;;5115562;28;20434;-78
2022/08/27 13:25:00;;;;;;;10.00;1.50;;;24.20;99.90;;;;;;5116965;28;20394;-78
2022/08/27 13:27:33;;;;;;;4.60;1.10;;;23.90;99.90;;;;;;5099297;28;20523;-78
2022/08/27 13:30:10;;;;;;;5.03;1.23;;;24.30;99.90;;;;;;5114455;28;20926;-79
2022/08/27 13:32:36;;;;;;;4.97;1.27;;;24.10;99.90;;;;;;5116105;28;20418;-77
2022/08/27 13:35:03;;;;;;;4.43;1.37;;;24.30;99.90;;;;;;5099374;28;20397;-78
2022/08/27 13:37:44;;;;;;;5.63;1.17;;;24.20;99.90;;;;;;5134692;28;20398;-78
2022/08/27 13:40:25;;;;;;;4.67;1.20;;;23.70;99.90;;;;;;5133973;28;20485;-77
2022/08/27 13:42:52;;;;;;;6.90;1.90;;;23.90;99.90;;;;;;5116368;27;20446;-77
2022/08/27 13:45:18;;;;;;;5.70;1.60;;;23.90;99.90;;;;;;5120692;27;20391;-77
2022/08/27 13:47:47;;;;;;;6.47;1.77;;;23.70;99.90;;;;;;5105834;27;20410;-77
2022/08/27 13:50:25;;;;;;;6.70;1.63;;;23.10;99.90;;;;;;5103490;27;20455;-77
2022/08/27 13:55:48;;;;;;;5.10;1.50;;;22.90;99.90;;;;;;5137210;27;20414;-78
2022/08/27 13:58:26;;;;;;;5.73;1.40;;;23.00;99.90;;;;;;5138613;27;20765;-79
2022/08/27 14:00:52;;;;;;;5.80;1.30;;;22.70;99.90;;;;;;5115808;27;20418;-77
2022/08/27 14:03:33;;;;;;;5.07;1.30;;;22.70;99.90;;;;;;5119398;27;20453;-77
2022/08/27 14:06:02;;;;;;;7.53;1.50;;;22.70;99.90;;;;;;5119622;27;20429;-78
2022/08/27 14:08:33;;;;;;;5.77;1.67;;;22.50;99.90;;;;;;5120243;27;20387;-77
2022/08/27 14:11:06;;;;;;;5.78;1.50;;;22.40;99.90;;;;;;5120471;27;20395;-77
2022/08/27 14:13:46;;;;;;;6.53;1.67;;;22.30;99.90;;;;;;5103500;27;20445;-77
2022/08/27 14:16:25;;;;;;;5.57;1.52;;;22.10;99.90;;;;;;5118114;27;20410;-78
2022/08/27 14:19:03;;;;;;;5.13;1.50;;;22.40;99.90;;;;;;5118412;27;20395;-78
2022/08/27 14:21:30;;;;;;;5.38;1.50;;;22.40;99.90;;;;;;5117084;27;20455;-78
2022/08/27 14:23:57;;;;;;;5.72;1.45;;;22.50;99.90;;;;;;5096572;28;20406;-78
2022/08/27 14:26:25;;;;;;;7.72;1.95;;;22.50;99.90;;;;;;5079407;28;20836;-78
2022/08/27 14:28:51;;;;;;;4.90;1.85;;;22.30;99.90;;;;;;5095678;28;20394;-78
2022/08/27 14:31:17;;;;;;;4.85;1.42;;;22.00;99.90;;;;;;5077613;28;20421;-76
2022/08/27 14:33:46;;;;;;;5.50;1.55;;;22.00;99.90;;;;;;5080701;28;20414;-77
2022/08/27 14:36:13;;;;;;;7.93;2.13;;;21.60;99.90;;;;;;5094664;28;20386;-78
2022/08/27 14:38:42;;;;;;;5.90;1.67;;;21.60;99.90;;;;;;5094967;28;20390;-78
2022/08/27 14:41:08;;;;;;;4.95;1.88;;;21.60;99.90;;;;;;5094203;28;20416;-78
2022/08/27 14:43:34;;;;;;;4.73;1.53;;;21.30;99.90;;;;;;5092631;28;20466;-79
2022/08/27 14:46:01;;;;;;;4.82;1.70;;;21.60;99.90;;;;;;5082178;28;20415;-77
2022/08/27 14:48:31;;;;;;;5.38;1.63;;;21.60;99.90;;;;;;5086346;28;20429;-76
2022/08/27 14:50:58;;;;;;;6.75;1.80;;;21.80;99.90;;;;;;5092698;28;20409;-77
2022/08/27 14:53:25;;;;;;;6.15;1.80;;;21.60;99.90;;;;;;5094368;28;20413;-77
2022/08/27 14:55:51;;;;;;;6.57;1.95;;;22.30;99.90;;;;;;5083568;28;20756;-77
2022/08/27 14:58:17;;;;;;;7.90;1.95;;;22.00;99.90;;;;;;5046319;28;20917;-78
2022/08/27 15:00:43;;;;;;;4.53;1.67;;;22.10;99.90;;;;;;5086774;28;20433;-77
2022/08/27 15:03:10;;;;;;;5.03;1.77;;;22.20;99.90;;;;;;5061338;28;20429;-79
2022/08/27 15:05:35;;;;;;;7.30;1.85;;;22.20;99.90;;;;;;5069376;28;20504;-79
2022/08/27 15:08:03;;;;;;;9.00;2.00;;;22.10;99.90;;;;;;5087273;28;20805;-79
2022/08/27 15:10:29;;;;;;;5.88;2.13;;;21.80;99.90;;;;;;5080834;28;20418;-79
2022/08/27 15:12:56;;;;;;;6.70;2.10;;;21.70;99.90;;;;;;5073877;28;20417;-79
2022/08/27 15:15:23;;;;;;;8.60;1.98;;;21.30;99.90;;;;;;5090418;28;20421;-79
2022/08/27 15:17:49;;;;;;;9.07;2.00;;;21.50;99.90;;;;;;5088648;28;20432;-80
2022/08/27 15:20:16;;;;;;;6.50;1.70;;;21.40;99.90;;;;;;5078126;28;20466;-81
2022/08/27 15:22:45;;;;;;;7.25;1.90;;;21.10;99.90;;;;;;5080781;28;20420;-81
2022/08/27 15:25:14;;;;;;;6.78;1.73;;;21.30;99.90;;;;;;5088276;28;20449;-81
2022/08/27 15:27:39;;;;;;;5.53;1.92;;;21.60;99.90;;;;;;5085619;28;20494;-81
2022/08/27 15:30:12;;;;;;;7.80;1.73;;;21.40;99.90;;;;;;5045496;28;20494;-81
2022/08/27 15:32:46;;;;;;;6.13;2.03;;;21.50;99.90;;;;;;5056552;28;20991;-80
2022/08/27 15:35:16;;;;;;;4.82;1.70;;;21.20;99.90;;;;;;5068320;28;20505;-81
2022/08/27 15:37:43;;;;;;;6.20;1.65;;;21.30;99.90;;;;;;5056980;28;20826;-79